createdAt,value
2024-02-11T00:00:25.521Z,6.43
2024-02-11T00:01:25.479Z,6.43
2024-02-11T00:02:25.481Z,6.43
2024-02-11T00:03:25.484Z,6.59
2024-02-11T00:04:25.460Z,6.52
2024-02-11T00:05:25.487Z,6.51
2024-02-11T00:06:25.516Z,6.43
2024-02-11T00:07:25.404Z,6.49
2024-02-11T00:08:25.412Z,6.43
2024-02-11T00:09:25.413Z,6.38
2024-02-11T00:10:25.397Z,6.40
2024-02-11T00:11:25.403Z,6.37
2024-02-11T00:12:25.410Z,6.36
2024-02-11T00:13:25.360Z,6.40
2024-02-11T00:14:25.406Z,6.38
2024-02-11T00:15:25.332Z,6.52
2024-02-11T00:16:25.328Z,6.40
2024-02-11T00:17:25.315Z,6.49
2024-02-11T00:18:25.279Z,6.49
2024-02-11T00:19:25.323Z,6.34
2024-02-11T00:20:25.338Z,6.52
2024-02-11T00:21:25.267Z,6.37
2024-02-11T00:22:25.261Z,6.43
2024-02-11T00:23:25.240Z,6.37
2024-02-11T00:24:25.226Z,6.49
2024-02-11T00:25:25.245Z,6.52
2024-02-11T00:26:25.246Z,6.49
2024-02-11T00:27:25.198Z,6.52
2024-02-11T00:28:25.167Z,6.48
2024-02-11T00:29:25.154Z,6.52
2024-02-11T00:30:25.153Z,6.52
2024-02-11T00:31:25.136Z,6.38
2024-02-11T00:32:25.148Z,6.38
2024-02-11T00:33:25.247Z,6.54
2024-02-11T00:34:25.145Z,6.54
2024-02-11T00:35:25.108Z,6.54
2024-02-11T00:36:25.086Z,6.51
2024-02-11T00:37:25.073Z,6.59
2024-02-11T00:38:25.065Z,6.51
2024-02-11T00:39:25.091Z,6.54
2024-02-11T00:40:25.101Z,6.55
2024-02-11T00:41:25.075Z,6.51
2024-02-11T00:42:25.033Z,6.51
2024-02-11T00:43:25.011Z,6.43
2024-02-11T00:44:25.068Z,6.40
2024-02-11T00:45:24.986Z,6.49
2024-02-11T00:46:24.992Z,6.22
2024-02-11T00:47:25.067Z,6.28
2024-02-11T00:48:25.086Z,6.36
2024-02-11T00:49:24.936Z,6.30
2024-02-11T00:50:24.956Z,6.30
2024-02-11T00:51:24.952Z,6.28
2024-02-11T00:52:24.896Z,6.21
2024-02-11T00:53:25.017Z,6.34
2024-02-11T00:54:24.913Z,6.34
2024-02-11T00:55:24.896Z,6.30
2024-02-11T00:56:24.858Z,6.25
2024-02-11T00:57:24.898Z,6.28
2024-02-11T00:58:24.835Z,6.28
2024-02-11T00:59:24.820Z,6.33
2024-02-11T01:00:24.834Z,6.27
2024-02-11T01:01:24.829Z,6.25
2024-02-11T01:02:24.829Z,6.18
2024-02-11T01:03:24.790Z,6.22
2024-02-11T01:04:24.811Z,6.27
2024-02-11T01:05:24.810Z,6.37
2024-02-11T01:06:24.826Z,6.28
2024-02-11T01:07:24.800Z,6.34
2024-02-11T01:08:24.771Z,6.37
2024-02-11T01:09:24.702Z,6.37
2024-02-11T01:10:24.721Z,6.38
2024-02-11T01:11:24.719Z,6.40
2024-02-11T01:12:24.713Z,6.36
2024-02-11T01:13:24.680Z,6.58
2024-02-11T01:14:24.649Z,6.58
2024-02-11T01:15:24.640Z,6.52
2024-02-11T01:16:24.655Z,6.59
2024-02-11T01:17:24.668Z,6.54
2024-02-11T01:18:24.654Z,6.56
2024-02-11T01:19:24.607Z,6.62
2024-02-11T01:20:24.614Z,6.56
2024-02-11T01:21:24.630Z,6.56
2024-02-11T01:22:24.582Z,6.64
2024-02-11T01:23:24.620Z,6.67
2024-02-11T01:24:24.536Z,6.71
2024-02-11T01:25:24.530Z,6.74
2024-02-11T01:26:24.523Z,6.74
2024-02-11T01:27:24.517Z,6.76
2024-02-11T01:28:24.542Z,6.84
2024-02-11T01:29:24.534Z,6.81
2024-02-11T01:30:24.483Z,6.81
2024-02-11T01:31:24.454Z,6.77
2024-02-11T01:32:25.482Z,6.81
2024-02-11T01:33:24.493Z,6.87
2024-02-11T01:34:24.475Z,6.85
2024-02-11T01:35:24.509Z,6.81
2024-02-11T01:36:24.399Z,6.88
2024-02-11T01:37:24.396Z,6.80
2024-02-11T01:38:24.399Z,6.85
2024-02-11T01:39:24.471Z,6.87
2024-02-11T01:40:24.375Z,6.85
2024-02-11T01:41:24.352Z,6.91
2024-02-11T01:42:24.337Z,6.97
2024-02-11T01:43:24.348Z,6.88
2024-02-11T01:44:24.363Z,6.95
2024-02-11T01:45:24.337Z,7.02
2024-02-11T01:46:24.311Z,6.99
2024-02-11T01:47:24.302Z,6.98
2024-02-11T01:48:24.329Z,6.97
2024-02-11T01:49:24.261Z,7.02
2024-02-11T01:50:24.286Z,6.95
2024-02-11T01:51:24.258Z,6.95
2024-02-11T01:52:24.259Z,7.06
2024-02-11T01:53:24.213Z,6.94
2024-02-11T01:54:24.261Z,6.99
2024-02-11T01:55:24.209Z,7.03
2024-02-11T01:56:24.248Z,7.02
2024-02-11T01:57:24.179Z,7.07
2024-02-11T01:58:24.192Z,7.03
2024-02-11T01:59:24.146Z,6.99
2024-02-11T02:00:24.127Z,7.06
2024-02-11T02:01:24.224Z,6.99
2024-02-11T02:02:24.126Z,7.06
2024-02-11T02:03:24.122Z,7.06
2024-02-11T02:04:24.133Z,6.99
2024-02-11T02:05:24.319Z,6.98
2024-02-11T02:06:24.795Z,6.98
2024-02-11T02:07:24.098Z,7.10
2024-02-11T02:08:24.113Z,7.02
2024-02-11T02:09:24.060Z,7.10
2024-02-11T02:10:24.021Z,7.12
2024-02-11T02:11:24.002Z,6.98
2024-02-11T02:12:24.016Z,7.02
2024-02-11T02:13:24.031Z,7.07
2024-02-11T02:14:24.046Z,7.03
2024-02-11T02:15:24.032Z,7.09
2024-02-11T02:16:23.969Z,7.06
2024-02-11T02:17:24.056Z,7.12
2024-02-11T02:18:23.988Z,7.10
2024-02-11T02:19:23.962Z,6.98
2024-02-11T02:20:24.093Z,7.09
2024-02-11T02:21:23.893Z,7.02
2024-02-11T02:22:23.925Z,7.12
2024-02-11T02:23:24.429Z,7.06
2024-02-11T02:24:23.862Z,7.17
2024-02-11T02:25:23.872Z,7.13
2024-02-11T02:26:23.901Z,7.13
2024-02-11T02:27:23.857Z,7.17
2024-02-11T02:28:23.828Z,7.32
2024-02-11T02:29:23.853Z,7.30
2024-02-11T02:30:23.959Z,7.34
2024-02-11T02:31:23.810Z,7.39
2024-02-11T02:32:23.936Z,7.34
2024-02-11T02:33:23.869Z,7.40
2024-02-11T02:34:23.802Z,7.48
2024-02-11T02:35:24.043Z,7.37
2024-02-11T02:36:23.764Z,7.48
2024-02-11T02:37:23.750Z,7.52
2024-02-11T02:38:23.751Z,7.52
2024-02-11T02:39:23.710Z,7.46
2024-02-11T02:40:23.700Z,7.43
2024-02-11T02:41:23.668Z,7.42
2024-02-11T02:42:23.689Z,7.49
2024-02-11T02:43:23.653Z,7.46
2024-02-11T02:44:23.651Z,7.48
2024-02-11T02:45:23.655Z,7.42
2024-02-11T02:46:23.642Z,7.46
2024-02-11T02:47:23.689Z,7.49
2024-02-11T02:48:23.903Z,7.48
2024-02-11T02:49:23.601Z,7.48
2024-02-11T02:50:23.662Z,7.55
2024-02-11T02:51:23.603Z,7.52
2024-02-11T02:52:23.573Z,7.50
2024-02-11T02:53:23.556Z,7.53
2024-02-11T02:54:23.575Z,7.49
2024-02-11T02:55:23.512Z,7.50
2024-02-11T02:56:23.526Z,7.57
2024-02-11T02:57:23.506Z,7.55
2024-02-11T02:58:23.499Z,7.55
2024-02-11T02:59:23.490Z,7.55
2024-02-11T03:00:23.497Z,7.64
2024-02-11T03:01:23.456Z,7.60
2024-02-11T03:02:23.505Z,7.58
2024-02-11T03:03:23.482Z,7.53
2024-02-11T03:04:25.945Z,7.61
2024-02-11T03:05:24.187Z,7.64
2024-02-11T03:06:23.513Z,7.72
2024-02-11T03:07:23.434Z,7.61
2024-02-11T03:08:23.441Z,7.74
2024-02-11T03:09:23.371Z,7.69
2024-02-11T03:10:23.362Z,7.72
2024-02-11T03:11:23.329Z,7.74
2024-02-11T03:12:23.314Z,7.68
2024-02-11T03:13:23.339Z,7.80
2024-02-11T03:14:23.366Z,7.83
2024-02-11T03:15:23.290Z,7.82
2024-02-11T03:16:23.320Z,7.82
2024-02-11T03:17:23.367Z,7.82
2024-02-11T03:18:23.316Z,7.74
2024-02-11T03:19:23.268Z,7.77
2024-02-11T03:20:23.291Z,7.75
2024-02-11T03:21:23.248Z,7.80
2024-02-11T03:22:23.238Z,7.72
2024-02-11T03:23:23.266Z,7.80
2024-02-11T03:24:23.204Z,7.80
2024-02-11T03:25:23.227Z,7.79
2024-02-11T03:26:23.180Z,7.80
2024-02-11T03:27:23.175Z,7.77
2024-02-11T03:28:23.174Z,7.82
2024-02-11T03:29:23.128Z,7.80
2024-02-11T03:30:23.251Z,7.82
2024-02-11T03:31:23.112Z,7.72
2024-02-11T03:32:23.180Z,7.82
2024-02-11T03:33:23.257Z,7.86
2024-02-11T03:34:23.180Z,7.87
2024-02-11T03:35:23.106Z,7.90
2024-02-11T03:36:23.053Z,7.87
2024-02-11T03:37:23.082Z,7.83
2024-02-11T03:38:23.103Z,7.92
2024-02-11T03:39:23.049Z,7.90
2024-02-11T03:40:23.064Z,7.87
2024-02-11T03:41:22.991Z,7.86
2024-02-11T03:42:22.987Z,7.95
2024-02-11T03:43:22.968Z,7.98
2024-02-11T03:44:23.031Z,7.92
2024-02-11T03:45:22.978Z,7.86
2024-02-11T03:46:22.934Z,7.92
2024-02-11T03:47:23.193Z,7.95
2024-02-11T03:48:23.040Z,7.92
2024-02-11T03:49:22.913Z,7.92
2024-02-11T03:50:22.971Z,7.97
2024-02-11T03:51:22.920Z,7.90
2024-02-11T03:52:22.870Z,7.98
2024-02-11T03:53:23.006Z,7.98
2024-02-11T03:54:22.883Z,7.93
2024-02-11T03:55:22.850Z,8.01
2024-02-11T03:56:22.898Z,8.04
2024-02-11T03:57:22.869Z,7.92
2024-02-11T03:58:22.815Z,8.02
2024-02-11T03:59:22.873Z,7.98
2024-02-11T04:00:22.785Z,8.01
2024-02-11T04:01:22.781Z,8.00
2024-02-11T04:02:22.830Z,8.00
2024-02-11T04:03:23.196Z,8.02
2024-02-11T04:04:22.810Z,8.01
2024-02-11T04:05:22.823Z,8.02
2024-02-11T04:06:22.735Z,8.01
2024-02-11T04:07:22.718Z,8.07
2024-02-11T04:08:22.796Z,8.01
2024-02-11T04:09:22.714Z,8.07
2024-02-11T04:10:22.693Z,8.01
2024-02-11T04:11:22.722Z,8.01
2024-02-11T04:12:22.676Z,8.04
2024-02-11T04:13:22.654Z,8.10
2024-02-11T04:14:22.691Z,8.07
2024-02-11T04:15:22.614Z,8.05
2024-02-11T04:16:22.634Z,8.02
2024-02-11T04:17:22.592Z,8.00
2024-02-11T04:18:22.741Z,8.01
2024-02-11T04:19:22.631Z,8.07
2024-02-11T04:20:22.592Z,8.02
2024-02-11T04:21:22.636Z,8.10
2024-02-11T04:22:22.568Z,8.01
2024-02-11T04:23:22.626Z,8.00
2024-02-11T04:24:22.690Z,8.00
2024-02-11T04:25:22.516Z,8.01
2024-02-11T04:26:22.624Z,8.04
2024-02-11T04:27:22.486Z,8.00
2024-02-11T04:28:22.506Z,8.00
2024-02-11T04:29:22.588Z,8.04
2024-02-11T04:30:22.470Z,8.01
2024-02-11T04:31:22.478Z,8.07
2024-02-11T04:32:22.533Z,8.07
2024-02-11T04:33:22.691Z,8.02
2024-02-11T04:34:22.496Z,8.12
2024-02-11T04:35:22.538Z,8.07
2024-02-11T04:36:22.432Z,8.10
2024-02-11T04:37:22.388Z,8.11
2024-02-11T04:38:22.459Z,8.05
2024-02-11T04:39:22.370Z,8.07
2024-02-11T04:40:22.337Z,8.05
2024-02-11T04:41:22.469Z,8.11
2024-02-11T04:42:22.345Z,8.07
2024-02-11T04:43:22.297Z,8.08
2024-02-11T04:44:22.429Z,8.08
2024-02-11T04:45:22.273Z,8.15
2024-02-11T04:46:22.286Z,8.08
2024-02-11T04:47:22.333Z,8.11
2024-02-11T04:48:22.362Z,8.07
2024-02-11T04:49:22.230Z,8.15
2024-02-11T04:50:22.366Z,8.15
2024-02-11T04:51:22.220Z,8.10
2024-02-11T04:52:22.261Z,8.12
2024-02-11T04:53:22.286Z,8.05
2024-02-11T04:54:22.173Z,8.08
2024-02-11T04:55:22.174Z,8.15
2024-02-11T04:56:22.330Z,8.10
2024-02-11T04:57:22.174Z,8.10
2024-02-11T04:58:22.195Z,8.04
2024-02-11T04:59:22.260Z,8.04
2024-02-11T05:00:22.133Z,8.16
2024-02-11T05:01:22.116Z,8.07
2024-02-11T05:02:22.141Z,8.12
2024-02-11T05:03:22.100Z,8.07
2024-02-11T05:04:22.162Z,8.16
2024-02-11T05:05:22.225Z,8.05
2024-02-11T05:06:22.073Z,8.10
2024-02-11T05:07:22.040Z,8.11
2024-02-11T05:08:22.616Z,8.11
2024-02-11T05:09:22.042Z,8.11
2024-02-11T05:10:22.019Z,8.16
2024-02-11T05:11:22.043Z,8.10
2024-02-11T05:12:21.968Z,8.02
2024-02-11T05:13:22.004Z,8.05
2024-02-11T05:14:22.059Z,8.07
2024-02-11T05:15:21.971Z,8.16
2024-02-11T05:16:21.972Z,8.10
2024-02-11T05:17:21.957Z,8.16
2024-02-11T05:18:22.061Z,8.18
2024-02-11T05:19:21.900Z,8.11
2024-02-11T05:20:22.031Z,8.16
2024-02-11T05:21:21.904Z,8.05
2024-02-11T05:22:21.923Z,7.86
2024-02-11T05:23:21.929Z,7.86
2024-02-11T05:24:21.910Z,7.74
2024-02-11T05:25:21.842Z,7.74
2024-02-11T05:26:21.992Z,7.58
2024-02-11T05:27:21.900Z,7.53
2024-02-11T05:28:21.814Z,7.40
2024-02-11T05:29:21.840Z,7.40
2024-02-11T05:30:21.806Z,7.30
2024-02-11T05:31:21.788Z,7.17
2024-02-11T05:32:21.791Z,7.10
2024-02-11T05:33:22.323Z,7.06
2024-02-11T05:34:21.721Z,6.99
2024-02-11T05:35:21.746Z,7.02
2024-02-11T05:36:21.702Z,6.94
2024-02-11T05:37:21.711Z,6.88
2024-02-11T05:38:22.397Z,6.80
2024-02-11T05:39:21.873Z,6.79
2024-02-11T05:40:21.664Z,6.71
2024-02-11T05:41:21.830Z,6.67
2024-02-11T05:42:21.675Z,6.71
2024-02-11T05:43:21.638Z,6.73
2024-02-11T05:44:21.694Z,6.66
2024-02-11T05:45:21.621Z,6.70
2024-02-11T05:46:21.933Z,6.71
2024-02-11T05:47:21.604Z,6.70
2024-02-11T05:48:21.675Z,6.67
2024-02-11T05:49:21.596Z,6.55
2024-02-11T05:50:21.685Z,6.54
2024-02-11T05:51:21.593Z,6.52
2024-02-11T05:52:21.526Z,6.41
2024-02-11T05:53:21.695Z,6.37
2024-02-11T05:54:21.516Z,6.43
2024-02-11T05:55:21.522Z,6.30
2024-02-11T05:56:21.684Z,6.22
2024-02-11T05:57:21.519Z,6.27
2024-02-11T05:58:21.484Z,6.15
2024-02-11T05:59:21.520Z,6.15
2024-02-11T06:00:21.449Z,6.06
2024-02-11T06:01:21.614Z,6.06
2024-02-11T06:02:22.027Z,6.09
2024-02-11T06:03:21.398Z,6.00
2024-02-11T06:04:21.473Z,6.11
2024-02-11T06:05:21.429Z,6.01
2024-02-11T06:06:21.381Z,5.96
2024-02-11T06:07:21.498Z,5.94
2024-02-11T06:08:21.800Z,5.96
2024-02-11T06:09:21.353Z,5.93
2024-02-11T06:10:21.331Z,5.94
2024-02-11T06:11:21.460Z,5.78
2024-02-11T06:12:21.332Z,5.76
2024-02-11T06:13:21.345Z,5.78
2024-02-11T06:14:21.327Z,5.76
2024-02-11T06:15:21.305Z,5.68
2024-02-11T06:16:21.261Z,5.75
2024-02-11T06:17:21.314Z,5.61
2024-02-11T06:18:21.287Z,5.61
2024-02-11T06:19:21.348Z,5.63
2024-02-11T06:20:21.245Z,5.58
2024-02-11T06:21:21.216Z,5.60
2024-02-11T06:22:21.202Z,5.56
2024-02-11T06:23:21.265Z,5.57
2024-02-11T06:24:21.206Z,5.46
2024-02-11T06:25:21.217Z,5.56
2024-02-11T06:26:21.253Z,5.46
2024-02-11T06:27:21.133Z,5.48
2024-02-11T06:28:21.156Z,5.48
2024-02-11T06:29:21.222Z,5.49
2024-02-11T06:30:21.377Z,5.39
2024-02-11T06:31:21.098Z,5.46
2024-02-11T06:32:21.189Z,5.53
2024-02-11T06:33:21.260Z,5.48
2024-02-11T06:34:22.445Z,5.43
2024-02-11T06:35:22.057Z,5.38
2024-02-11T06:36:21.026Z,5.48
2024-02-11T06:37:21.020Z,5.35
2024-02-11T06:38:21.057Z,5.39
2024-02-11T06:39:21.042Z,5.39
2024-02-11T06:40:21.004Z,5.42
2024-02-11T06:41:21.147Z,5.31
2024-02-11T06:42:21.024Z,5.33
2024-02-11T06:43:20.962Z,5.42
2024-02-11T06:44:21.012Z,5.38
2024-02-11T06:45:20.952Z,5.33
2024-02-11T06:46:20.943Z,5.31
2024-02-11T06:47:21.147Z,5.36
2024-02-11T06:48:21.089Z,5.35
2024-02-11T06:49:20.920Z,5.38
2024-02-11T06:50:32.086Z,5.31
2024-02-11T06:51:20.893Z,5.30
2024-02-11T06:52:20.880Z,5.22
2024-02-11T06:53:20.972Z,5.27
2024-02-11T06:54:20.828Z,5.22
2024-02-11T06:55:21.594Z,5.25
2024-02-11T06:56:20.839Z,5.25
2024-02-11T06:57:20.821Z,5.28
2024-02-11T06:58:20.784Z,5.22
2024-02-11T06:59:20.846Z,5.35
2024-02-11T07:00:21.311Z,5.30
2024-02-11T07:01:20.790Z,5.28
2024-02-11T07:02:20.765Z,5.24
2024-02-11T07:03:20.807Z,5.24
2024-02-11T07:04:20.800Z,5.22
2024-02-11T07:05:20.948Z,5.27
2024-02-11T07:06:20.793Z,5.20
2024-02-11T07:07:20.687Z,5.20
2024-02-11T07:08:20.740Z,5.18
2024-02-11T07:09:20.692Z,5.17
2024-02-11T07:10:20.657Z,5.21
2024-02-11T07:11:20.718Z,5.31
2024-02-11T07:12:20.653Z,5.30
2024-02-11T07:13:20.629Z,5.31
2024-02-11T07:14:20.743Z,5.28
2024-02-11T07:15:20.808Z,5.20
2024-02-11T07:16:20.578Z,5.15
2024-02-11T07:17:20.632Z,5.13
2024-02-11T07:18:20.723Z,5.17
2024-02-11T07:19:20.571Z,5.15
2024-02-11T07:20:20.763Z,5.18
2024-02-11T07:21:20.544Z,5.12
2024-02-11T07:22:20.509Z,5.18
2024-02-11T07:23:20.688Z,5.18
2024-02-11T07:24:20.531Z,5.18
2024-02-11T07:25:20.498Z,5.04
2024-02-11T07:26:20.569Z,5.13
2024-02-11T07:27:20.482Z,5.15
2024-02-11T07:28:20.449Z,5.17
2024-02-11T07:29:20.546Z,5.15
2024-02-11T07:30:20.463Z,5.20
2024-02-11T07:31:20.445Z,5.12
2024-02-11T07:32:20.538Z,5.15
2024-02-11T07:33:20.730Z,5.15
2024-02-11T07:34:20.703Z,5.10
2024-02-11T07:35:20.512Z,5.06
2024-02-11T07:36:20.379Z,5.12
2024-02-11T07:37:20.509Z,5.07
2024-02-11T07:38:20.353Z,5.10
2024-02-11T07:39:20.323Z,5.12
2024-02-11T07:40:20.342Z,5.10
2024-02-11T07:41:20.523Z,5.17
2024-02-11T07:42:21.710Z,5.10
2024-02-11T07:43:20.320Z,5.15
2024-02-11T07:44:20.303Z,5.09
2024-02-11T07:45:20.257Z,5.10
2024-02-11T07:46:20.287Z,5.07
2024-02-11T07:47:20.276Z,5.12
2024-02-11T07:48:20.333Z,5.03
2024-02-11T07:49:20.214Z,4.94
2024-02-11T07:50:20.437Z,4.99
2024-02-11T07:51:20.222Z,4.97
2024-02-11T07:52:20.296Z,4.88
2024-02-11T07:53:20.295Z,4.99
2024-02-11T07:54:20.393Z,4.88
2024-02-11T07:55:20.137Z,4.92
2024-02-11T07:56:20.243Z,4.88
2024-02-11T07:57:20.207Z,4.89
2024-02-11T07:58:20.123Z,4.82
2024-02-11T07:59:20.357Z,4.82
2024-02-11T08:00:20.142Z,4.89
2024-02-11T08:01:20.288Z,4.89
2024-02-11T08:02:20.333Z,4.88
2024-02-11T08:03:22.252Z,4.89
2024-02-11T08:04:20.338Z,4.91
2024-02-11T08:05:20.206Z,4.80
2024-02-11T08:06:20.124Z,4.84
2024-02-11T08:07:20.009Z,4.73
2024-02-11T08:08:20.084Z,4.78
2024-02-11T08:09:20.036Z,4.73
2024-02-11T08:10:20.017Z,4.77
2024-02-11T08:11:20.123Z,4.75
2024-02-11T08:12:19.971Z,4.77
2024-02-11T08:13:19.937Z,4.77
2024-02-11T08:14:20.004Z,4.72
2024-02-11T08:15:19.928Z,4.70
2024-02-11T08:16:19.934Z,4.70
2024-02-11T08:17:20.108Z,4.63
2024-02-11T08:18:19.922Z,4.69
2024-02-11T08:19:19.918Z,4.67
2024-02-11T08:20:20.017Z,4.78
2024-02-11T08:21:19.901Z,4.66
2024-02-11T08:22:19.920Z,4.70
2024-02-11T08:23:19.932Z,4.66
2024-02-11T08:24:19.820Z,4.66
2024-02-11T08:25:19.897Z,4.66
2024-02-11T08:26:19.990Z,4.65
2024-02-11T08:27:19.825Z,4.72
2024-02-11T08:28:19.900Z,4.66
2024-02-11T08:29:19.873Z,4.69
2024-02-11T08:30:21.340Z,4.60
2024-02-11T08:31:19.842Z,4.62
2024-02-11T08:32:19.845Z,4.60
2024-02-11T08:33:19.872Z,4.58
2024-02-11T08:34:19.761Z,4.69
2024-02-11T08:35:19.780Z,4.58
2024-02-11T08:36:19.688Z,4.58
2024-02-11T08:37:19.734Z,4.62
2024-02-11T08:38:19.744Z,4.65
2024-02-11T08:39:19.680Z,4.55
2024-02-11T08:40:19.687Z,4.62
2024-02-11T08:41:19.753Z,4.55
2024-02-11T08:42:19.624Z,4.52
2024-02-11T08:43:19.700Z,4.58
2024-02-11T08:44:19.646Z,4.55
2024-02-11T08:45:19.610Z,4.58
2024-02-11T08:46:19.578Z,4.58
2024-02-11T08:47:19.581Z,4.55
2024-02-11T08:48:19.712Z,4.55
2024-02-11T08:49:19.601Z,4.63
2024-02-11T08:50:19.733Z,4.59
2024-02-11T08:51:19.546Z,4.58
2024-02-11T08:52:19.502Z,4.59
2024-02-11T08:53:19.634Z,4.59
2024-02-11T08:54:19.525Z,4.55
2024-02-11T08:55:19.490Z,4.60
2024-02-11T08:56:19.516Z,4.55
2024-02-11T08:57:19.488Z,4.62
2024-02-11T08:58:19.542Z,4.69
2024-02-11T08:59:19.456Z,4.65
2024-02-11T09:00:19.460Z,4.60
2024-02-11T09:01:19.454Z,4.69
2024-02-11T09:02:19.502Z,4.66
2024-02-11T09:03:19.434Z,4.69
2024-02-11T09:04:19.414Z,4.69
2024-02-11T09:05:19.441Z,4.78
2024-02-11T09:06:19.382Z,4.78
2024-02-11T09:07:19.350Z,4.75
2024-02-11T09:08:19.401Z,4.75
2024-02-11T09:09:19.315Z,4.78
2024-02-11T09:10:19.308Z,4.78
2024-02-11T09:11:19.323Z,4.75
2024-02-11T09:12:19.335Z,4.75
2024-02-11T09:13:19.339Z,4.70
2024-02-11T09:14:19.363Z,4.77
2024-02-11T09:15:19.344Z,4.78
2024-02-11T09:16:19.250Z,4.73
2024-02-11T09:17:19.507Z,4.78
2024-02-11T09:18:19.311Z,4.72
2024-02-11T09:19:19.395Z,4.80
2024-02-11T09:20:19.284Z,4.88
2024-02-11T09:21:19.278Z,4.86
2024-02-11T09:22:19.185Z,4.88
2024-02-11T09:23:19.244Z,4.92
2024-02-11T09:24:19.171Z,4.89
2024-02-11T09:25:19.330Z,4.86
2024-02-11T09:26:19.246Z,4.88
2024-02-11T09:27:19.147Z,4.89
2024-02-11T09:28:19.102Z,4.84
2024-02-11T09:29:19.272Z,4.97
2024-02-11T09:30:19.265Z,4.96
2024-02-11T09:31:19.126Z,4.89
2024-02-11T09:32:19.067Z,4.88
2024-02-11T09:33:19.258Z,5.06
2024-02-11T09:34:19.145Z,4.99
2024-02-11T09:35:19.245Z,4.91
2024-02-11T09:36:19.061Z,5.03
2024-02-11T09:37:18.997Z,4.99
2024-02-11T09:38:19.058Z,4.97
2024-02-11T09:39:18.987Z,5.04
2024-02-11T09:40:19.648Z,5.02
2024-02-11T09:41:19.080Z,5.04
2024-02-11T09:42:18.989Z,5.10
2024-02-11T09:43:18.988Z,5.12
2024-02-11T09:44:20.499Z,5.17
2024-02-11T09:45:19.749Z,5.15
2024-02-11T09:46:18.952Z,5.22
2024-02-11T09:47:19.183Z,5.10
2024-02-11T09:48:19.155Z,5.25
2024-02-11T09:49:18.978Z,5.20
2024-02-11T09:50:18.975Z,5.20
2024-02-11T09:51:18.846Z,5.30
2024-02-11T09:52:18.866Z,5.27
2024-02-11T09:53:19.028Z,5.27
2024-02-11T09:54:18.867Z,5.27
2024-02-11T09:55:18.887Z,5.25
2024-02-11T09:56:18.873Z,5.27
2024-02-11T09:57:18.784Z,5.30
2024-02-11T09:58:18.781Z,5.33
2024-02-11T09:59:18.969Z,5.38
2024-02-11T10:00:18.765Z,5.38
2024-02-11T10:01:18.812Z,5.36
2024-02-11T10:02:18.908Z,5.39
2024-02-11T10:03:18.813Z,5.38
2024-02-11T10:04:18.738Z,5.42
2024-02-11T10:05:18.814Z,5.39
2024-02-11T10:06:18.833Z,5.51
2024-02-11T10:07:18.672Z,5.53
2024-02-11T10:08:18.725Z,5.46
2024-02-11T10:09:19.493Z,5.51
2024-02-11T10:10:18.689Z,5.43
2024-02-11T10:11:18.773Z,5.48
2024-02-11T10:12:18.628Z,5.58
2024-02-11T10:13:19.094Z,5.54
2024-02-11T10:14:18.698Z,5.53
2024-02-11T10:15:19.267Z,5.49
2024-02-11T10:16:18.598Z,5.63
2024-02-11T10:17:18.688Z,5.60
2024-02-11T10:18:18.607Z,5.67
2024-02-11T10:19:18.613Z,5.65
2024-02-11T10:20:19.105Z,5.65
2024-02-11T10:21:18.597Z,5.74
2024-02-11T10:22:27.352Z,5.82
2024-02-11T10:23:19.739Z,5.79
2024-02-11T10:24:18.641Z,5.79
2024-02-11T10:25:18.478Z,5.79
2024-02-11T10:26:18.496Z,5.81
2024-02-11T10:27:18.492Z,5.72
2024-02-11T10:28:18.477Z,5.82
2024-02-11T10:29:18.434Z,5.78
2024-02-11T10:30:18.422Z,5.76
2024-02-11T10:31:18.426Z,5.76
2024-02-11T10:32:18.596Z,5.79
2024-02-11T10:33:18.455Z,5.82
2024-02-11T10:34:18.441Z,5.83
2024-02-11T10:35:18.411Z,5.71
2024-02-11T10:36:18.354Z,5.91
2024-02-11T10:37:18.344Z,5.86
2024-02-11T10:38:18.468Z,5.83
2024-02-11T10:39:18.445Z,5.93
2024-02-11T10:40:18.372Z,5.85
2024-02-11T10:41:18.714Z,5.90
2024-02-11T10:42:18.305Z,5.97
2024-02-11T10:43:18.285Z,5.96
2024-02-11T10:44:18.359Z,5.99
2024-02-11T10:45:18.308Z,5.96
2024-02-11T10:46:18.226Z,5.96
2024-02-11T10:47:18.438Z,6.00
2024-02-11T10:48:18.349Z,6.01
2024-02-11T10:49:18.262Z,6.04
2024-02-11T10:50:18.256Z,6.14
2024-02-11T10:51:18.181Z,6.15
2024-02-11T10:52:18.172Z,6.17
2024-02-11T10:53:18.236Z,6.11
2024-02-11T10:54:18.149Z,6.06
2024-02-11T10:55:18.154Z,6.08
2024-02-11T10:56:18.204Z,6.14
2024-02-11T10:57:18.099Z,6.17
2024-02-11T10:58:18.200Z,6.28
2024-02-11T10:59:18.105Z,6.31
2024-02-11T11:00:18.083Z,6.19
2024-02-11T11:01:18.098Z,6.28
2024-02-11T11:02:18.117Z,6.25
2024-02-11T11:03:18.149Z,6.17
2024-02-11T11:04:18.043Z,6.19
2024-02-11T11:05:18.062Z,6.33
2024-02-11T11:06:18.066Z,6.33
2024-02-11T11:07:18.037Z,6.22
2024-02-11T11:08:18.055Z,6.25
2024-02-11T11:09:17.976Z,6.34
2024-02-11T11:10:18.062Z,6.30
2024-02-11T11:11:18.031Z,6.30
2024-02-11T11:12:17.971Z,6.31
2024-02-11T11:13:17.974Z,6.33
2024-02-11T11:14:17.953Z,6.30
2024-02-11T11:15:17.986Z,6.33
2024-02-11T11:16:17.997Z,6.37
2024-02-11T11:17:18.054Z,6.38
2024-02-11T11:18:17.951Z,6.41
2024-02-11T11:19:17.961Z,6.37
2024-02-11T11:20:17.889Z,6.40
2024-02-11T11:21:17.856Z,6.49
2024-02-11T11:22:17.835Z,6.52
2024-02-11T11:23:17.972Z,6.51
2024-02-11T11:24:17.846Z,6.55
2024-02-11T11:25:17.786Z,6.52
2024-02-11T11:26:17.812Z,6.56
2024-02-11T11:27:17.792Z,6.51
2024-02-11T11:28:17.776Z,6.49
2024-02-11T11:29:17.982Z,6.52
2024-02-11T11:30:17.781Z,6.58
2024-02-11T11:31:17.804Z,6.56
2024-02-11T11:32:17.892Z,6.51
2024-02-11T11:33:17.740Z,6.61
2024-02-11T11:34:17.758Z,6.54
2024-02-11T11:35:17.826Z,6.69
2024-02-11T11:36:17.685Z,6.73
2024-02-11T11:37:17.776Z,6.67
2024-02-11T11:38:17.706Z,6.62
2024-02-11T11:39:17.645Z,6.71
2024-02-11T11:40:17.653Z,6.79
2024-02-11T11:41:17.723Z,6.76
2024-02-11T11:42:17.595Z,6.76
2024-02-11T11:43:17.668Z,6.81
2024-02-11T11:44:17.641Z,6.77
2024-02-11T11:45:17.585Z,6.79
2024-02-11T11:46:17.583Z,6.85
2024-02-11T11:47:17.654Z,6.81
2024-02-11T11:48:17.680Z,6.84
2024-02-11T11:49:17.684Z,6.85
2024-02-11T11:50:17.569Z,6.94
2024-02-11T11:51:17.514Z,6.87
2024-02-11T11:52:17.541Z,6.95
2024-02-11T11:53:17.562Z,6.99
2024-02-11T11:54:17.460Z,6.99
2024-02-11T11:55:17.481Z,6.97
2024-02-11T11:56:17.484Z,6.98
2024-02-11T11:57:17.455Z,6.98
2024-02-11T11:58:17.469Z,7.02
2024-02-11T11:59:17.501Z,6.99
2024-02-11T12:00:17.410Z,7.02
2024-02-11T12:01:18.138Z,7.06
2024-02-11T12:02:17.410Z,7.09
2024-02-11T12:03:17.425Z,7.09
2024-02-11T12:04:17.398Z,7.15
2024-02-11T12:05:17.431Z,7.16
2024-02-11T12:06:17.406Z,7.12
2024-02-11T12:07:17.321Z,7.23
2024-02-11T12:08:19.086Z,7.15
2024-02-11T12:09:17.350Z,7.15
2024-02-11T12:10:17.342Z,7.16
2024-02-11T12:11:17.303Z,7.20
2024-02-11T12:12:17.288Z,7.21
2024-02-11T12:13:17.324Z,7.21
2024-02-11T12:14:17.289Z,7.15
2024-02-11T12:15:17.265Z,7.17
2024-02-11T12:16:17.447Z,7.23
2024-02-11T12:17:17.437Z,7.17
2024-02-11T12:18:17.245Z,7.16
2024-02-11T12:19:17.273Z,7.15
2024-02-11T12:20:17.245Z,7.13
2024-02-11T12:21:17.205Z,7.27
2024-02-11T12:22:17.147Z,7.30
2024-02-11T12:23:17.252Z,7.17
2024-02-11T12:24:17.580Z,7.30
2024-02-11T12:25:17.166Z,7.28
2024-02-11T12:26:17.189Z,7.30
2024-02-11T12:27:17.149Z,7.34
2024-02-11T12:28:17.096Z,7.30
2024-02-11T12:29:17.111Z,7.30
2024-02-11T12:30:17.094Z,7.24
2024-02-11T12:31:17.072Z,7.27
2024-02-11T12:32:17.108Z,7.16
2024-02-11T12:33:17.259Z,7.21
2024-02-11T12:34:17.084Z,7.20
2024-02-11T12:35:17.070Z,7.15
2024-02-11T12:36:17.017Z,7.21
2024-02-11T12:37:17.049Z,7.23
2024-02-11T12:38:17.118Z,7.16
2024-02-11T12:39:17.038Z,7.25
2024-02-11T12:40:16.993Z,7.20
2024-02-11T12:41:17.119Z,7.16
2024-02-11T12:42:17.008Z,7.16
2024-02-11T12:43:16.954Z,7.23
2024-02-11T12:44:16.973Z,7.15
2024-02-11T12:45:16.893Z,7.25
2024-02-11T12:46:16.908Z,7.28
2024-02-11T12:47:16.889Z,7.25
2024-02-11T12:48:16.971Z,7.27
2024-02-11T12:49:16.920Z,7.35
2024-02-11T12:50:16.978Z,7.24
2024-02-11T12:51:16.834Z,7.28
2024-02-11T12:52:16.884Z,7.40
2024-02-11T12:53:16.910Z,7.37
2024-02-11T12:54:16.866Z,7.34
2024-02-11T12:55:16.833Z,7.39
2024-02-11T12:56:16.868Z,7.27
2024-02-11T12:57:16.789Z,7.24
2024-02-11T12:58:16.749Z,7.35
2024-02-11T12:59:16.831Z,7.30
2024-02-11T13:00:16.757Z,7.32
2024-02-11T13:01:16.886Z,7.28
2024-02-11T13:02:16.786Z,7.40
2024-02-11T13:03:16.785Z,7.43
2024-02-11T13:04:16.804Z,7.37
2024-02-11T13:05:19.561Z,7.50
2024-02-11T13:06:17.823Z,7.45
2024-02-11T13:07:16.649Z,7.46
2024-02-11T13:08:16.678Z,7.48
2024-02-11T13:09:16.715Z,7.50
2024-02-11T13:10:16.651Z,7.50
2024-02-11T13:11:18.129Z,7.48
2024-02-11T13:12:16.632Z,7.49
2024-02-11T13:13:16.599Z,7.52
2024-02-11T13:14:16.664Z,7.49
2024-02-11T13:15:16.669Z,7.49
2024-02-11T13:16:16.572Z,7.46
2024-02-11T13:17:16.593Z,7.50
2024-02-11T13:18:16.687Z,7.48